createdAt,value
2022-09-24T00:01:44.404Z,10.80
2022-09-24T00:04:35.912Z,10.80
2022-09-24T00:07:24.713Z,10.80
2022-09-24T00:10:13.818Z,10.80
2022-09-24T00:13:02.559Z,10.80
2022-09-24T00:15:52.706Z,10.70
2022-09-24T00:18:42.674Z,10.70
2022-09-24T00:21:34.598Z,10.70
2022-09-24T00:24:40.728Z,10.70
2022-09-24T00:27:29.400Z,10.70
2022-09-24T00:30:18.227Z,10.60
2022-09-24T00:33:06.879Z,10.60
2022-09-24T00:36:01.777Z,10.60
2022-09-24T00:38:53.306Z,10.60
2022-09-24T00:41:49.091Z,10.50
2022-09-24T00:44:55.010Z,10.50
2022-09-24T00:47:44.991Z,10.50
2022-09-24T00:50:36.611Z,10.50
2022-09-24T00:53:29.257Z,10.50
2022-09-24T00:56:22.254Z,10.50
2022-09-24T00:59:17.074Z,10.40
2022-09-24T01:02:07.648Z,10.40
2022-09-24T01:04:56.806Z,10.30
2022-09-24T01:07:48.258Z,10.30
2022-09-24T01:10:49.303Z,10.30
2022-09-24T01:14:12.340Z,10.20
2022-09-24T01:17:12.926Z,10.20
2022-09-24T01:20:37.020Z,10.20
2022-09-24T01:23:54.492Z,10.10
2022-09-24T01:27:07.085Z,10.10
2022-09-24T01:30:05.828Z,10.00
2022-09-24T01:32:57.356Z,10.00
2022-09-24T01:35:51.690Z,10.00
2022-09-24T01:38:44.388Z,10.00
2022-09-24T01:41:34.909Z,10.00
2022-09-24T01:44:23.648Z,10.00
2022-09-24T01:47:21.359Z,10.00
2022-09-24T01:50:12.367Z,10.00
2022-09-24T01:53:05.138Z,10.00
2022-09-24T01:56:00.457Z,10.00
2022-09-24T01:58:53.661Z,9.90
2022-09-24T02:01:47.515Z,9.90
2022-09-24T02:04:42.367Z,9.80
2022-09-24T02:07:36.508Z,9.80
2022-09-24T02:10:25.225Z,9.90
2022-09-24T02:13:16.700Z,9.80
2022-09-24T02:16:08.097Z,9.80
2022-09-24T02:18:59.404Z,9.80
2022-09-24T02:21:50.960Z,9.80
2022-09-24T02:24:46.408Z,9.70
2022-09-24T02:27:35.276Z,9.70
2022-09-24T02:30:24.255Z,9.70
2022-09-24T02:33:29.096Z,9.70
2022-09-24T02:36:18.783Z,9.70
2022-09-24T02:39:08.890Z,9.70
2022-09-24T02:41:58.564Z,9.60
2022-09-24T02:44:47.586Z,9.60
2022-09-24T02:47:37.064Z,9.60
2022-09-24T02:50:25.736Z,9.60
2022-09-24T02:53:14.381Z,9.50
2022-09-24T02:56:05.299Z,9.60
2022-09-24T02:58:53.952Z,9.60
2022-09-24T03:01:42.799Z,9.70
2022-09-24T03:04:31.933Z,9.70
2022-09-24T03:07:21.922Z,9.70
2022-09-24T03:10:11.411Z,9.60
2022-09-24T03:13:01.494Z,9.50
2022-09-24T03:15:50.252Z,9.50
2022-09-24T03:18:38.937Z,9.40
2022-09-24T03:21:27.605Z,9.40
2022-09-24T03:24:16.327Z,9.40
2022-09-24T03:27:05.188Z,9.30
2022-09-24T03:30:12.235Z,9.30
2022-09-24T03:33:00.969Z,9.30
2022-09-24T03:35:49.625Z,9.30
2022-09-24T03:38:39.799Z,9.40
2022-09-24T03:41:29.121Z,9.30
2022-09-24T03:44:17.768Z,9.40
2022-09-24T03:47:08.325Z,9.30
2022-09-24T03:49:56.947Z,9.30
2022-09-24T03:52:45.620Z,9.40
2022-09-24T03:55:34.373Z,9.40
2022-09-24T03:58:23.326Z,9.40
2022-09-24T04:01:13.340Z,9.40
2022-09-24T04:04:03.548Z,9.50
2022-09-24T04:06:52.893Z,9.50
2022-09-24T04:09:41.665Z,9.50
2022-09-24T04:12:31.310Z,9.50
2022-09-24T04:15:20.103Z,9.50
2022-09-24T04:18:09.006Z,9.50
2022-09-24T04:21:01.097Z,9.50
2022-09-24T04:23:49.813Z,9.50
2022-09-24T04:26:38.486Z,9.50
2022-09-24T04:29:27.142Z,9.40
2022-09-24T04:32:16.137Z,9.40
2022-09-24T04:35:07.607Z,9.40
2022-09-24T04:37:57.943Z,9.40
2022-09-24T04:40:47.443Z,9.40
2022-09-24T04:43:37.331Z,9.40
2022-09-24T04:46:26.142Z,9.40
2022-09-24T04:49:15.299Z,9.40
2022-09-24T04:52:05.325Z,9.40
2022-09-24T04:54:55.393Z,9.40
2022-09-24T04:57:45.268Z,9.40
2022-09-24T05:00:34.085Z,9.50
2022-09-24T05:03:23.019Z,9.50
2022-09-24T05:06:11.691Z,9.50
2022-09-24T05:09:00.618Z,9.60
2022-09-24T05:11:50.853Z,9.60
2022-09-24T05:14:39.528Z,9.60
2022-09-24T05:17:28.225Z,9.60
2022-09-24T05:20:17.986Z,9.60
2022-09-24T05:23:07.493Z,9.50
2022-09-24T05:26:13.269Z,9.50
2022-09-24T05:29:03.942Z,9.40
2022-09-24T05:31:52.865Z,9.40
2022-09-24T05:34:42.049Z,9.40
2022-09-24T05:37:30.752Z,9.30
2022-09-24T05:40:36.815Z,9.20
2022-09-24T05:43:27.821Z,9.20
2022-09-24T05:46:18.374Z,9.10
2022-09-24T05:49:07.176Z,9.10
2022-09-24T05:51:55.880Z,9.00
2022-09-24T05:54:44.512Z,9.00
2022-09-24T05:57:34.638Z,9.00
2022-09-24T06:00:23.521Z,9.00
2022-09-24T06:03:15.300Z,9.00
2022-09-24T06:06:04.064Z,9.10
2022-09-24T06:08:52.948Z,9.10
2022-09-24T06:11:42.232Z,9.20
2022-09-24T06:14:30.848Z,9.30
2022-09-24T06:17:19.603Z,9.50
2022-09-24T06:20:10.343Z,9.60
2022-09-24T06:22:59.027Z,9.80
2022-09-24T06:25:51.347Z,9.90
2022-09-24T06:28:40.511Z,10.10
2022-09-24T06:31:29.214Z,10.20
2022-09-24T06:34:17.923Z,10.20
2022-09-24T06:37:08.025Z,10.30
2022-09-24T06:39:56.687Z,10.40
2022-09-24T06:42:45.386Z,10.30
2022-09-24T06:45:34.680Z,10.20
2022-09-24T06:48:23.618Z,10.10
2022-09-24T06:51:12.284Z,10.00
2022-09-24T06:54:02.391Z,10.00
2022-09-24T06:56:52.730Z,10.00
2022-09-24T06:59:41.532Z,10.00
2022-09-24T07:02:31.291Z,10.10
2022-09-24T07:05:20.003Z,10.20
2022-09-24T07:08:08.688Z,10.20
2022-09-24T07:10:59.049Z,10.30
2022-09-24T07:13:47.788Z,10.40
2022-09-24T07:16:36.472Z,10.60
2022-09-24T07:19:25.165Z,10.80
2022-09-24T07:22:13.823Z,11.10
2022-09-24T07:25:02.470Z,11.20
2022-09-24T07:27:52.569Z,11.20
2022-09-24T07:30:41.570Z,11.30
2022-09-24T07:33:32.840Z,11.60
2022-09-24T07:36:21.933Z,11.80
2022-09-24T07:39:11.369Z,11.80
2022-09-24T07:42:00.580Z,12.10
2022-09-24T07:44:50.680Z,12.40
2022-09-24T07:47:39.622Z,12.70
2022-09-24T07:50:28.723Z,12.90
2022-09-24T07:53:17.381Z,13.20
2022-09-24T07:56:06.207Z,13.40
2022-09-24T07:58:55.305Z,13.40
2022-09-24T08:01:45.487Z,13.50
2022-09-24T08:04:34.198Z,13.40
2022-09-24T08:07:22.856Z,13.30
2022-09-24T08:10:11.758Z,13.40
2022-09-24T08:13:03.574Z,13.40
2022-09-24T08:15:59.267Z,13.50
2022-09-24T08:18:49.536Z,13.60
2022-09-24T08:21:40.236Z,13.60
2022-09-24T08:24:30.021Z,13.70
2022-09-24T08:27:20.365Z,13.70
2022-09-24T08:30:10.191Z,13.80
2022-09-24T08:32:59.148Z,13.90
2022-09-24T08:35:49.220Z,13.90
2022-09-24T08:38:39.025Z,14.00
2022-09-24T08:42:00.455Z,14.20
2022-09-24T08:45:09.886Z,14.30
2022-09-24T08:48:02.160Z,14.30
2022-09-24T08:51:00.948Z,14.30
2022-09-24T08:53:55.878Z,14.40
2022-09-24T08:56:47.532Z,14.60
2022-09-24T08:59:37.826Z,14.70
2022-09-24T09:02:42.544Z,14.70
2022-09-24T09:05:49.644Z,14.70
2022-09-24T09:09:06.351Z,14.80
2022-09-24T09:12:01.141Z,14.80
2022-09-24T09:14:57.130Z,14.90
2022-09-24T09:17:50.641Z,14.90
2022-09-24T09:20:43.039Z,14.90
2022-09-24T09:23:39.423Z,15.00
2022-09-24T09:26:29.754Z,15.00
2022-09-24T09:29:18.792Z,15.10
2022-09-24T09:32:20.882Z,15.10
2022-09-24T09:35:19.581Z,15.50
2022-09-24T09:38:19.271Z,15.90
2022-09-24T09:41:19.167Z,15.70
2022-09-24T09:44:15.482Z,15.70
2022-09-24T09:47:14.302Z,15.60
2022-09-24T09:50:08.123Z,15.70
2022-09-24T09:52:57.007Z,15.80
2022-09-24T09:55:51.792Z,16.30
2022-09-24T09:58:47.267Z,16.80
2022-09-24T10:01:41.790Z,17.20
2022-09-24T10:04:39.386Z,17.10
2022-09-24T10:07:28.138Z,16.90
2022-09-24T10:10:21.247Z,16.80
2022-09-24T10:13:14.283Z,16.80
2022-09-24T10:16:05.656Z,17.00
2022-09-24T10:18:55.889Z,16.90
2022-09-24T10:21:44.825Z,16.80
2022-09-24T10:24:34.192Z,16.70
2022-09-24T10:27:30.689Z,16.40
2022-09-24T10:30:34.006Z,16.40
2022-09-24T10:33:22.914Z,16.50
2022-09-24T10:36:21.327Z,16.50
2022-09-24T10:39:15.522Z,16.60
2022-09-24T10:42:05.416Z,16.70
2022-09-24T10:44:55.115Z,16.90
2022-09-24T10:47:52.090Z,16.80
2022-09-24T10:50:48.211Z,17.00
2022-09-24T10:53:52.227Z,17.00
2022-09-24T10:56:46.624Z,16.80
2022-09-24T10:59:50.253Z,16.70
2022-09-24T11:03:09.987Z,16.50
2022-09-24T11:06:03.755Z,16.50
2022-09-24T11:09:14.679Z,16.40
2022-09-24T11:12:10.236Z,16.50
2022-09-24T11:15:19.465Z,16.70
2022-09-24T11:18:28.077Z,16.70
2022-09-24T11:21:28.021Z,16.70
2022-09-24T11:24:41.100Z,16.90
2022-09-24T11:27:54.374Z,17.00
2022-09-24T11:30:50.872Z,17.10
2022-09-24T11:34:00.970Z,17.10
2022-09-24T11:37:13.577Z,17.20
2022-09-24T11:40:17.023Z,17.30
2022-09-24T11:43:22.781Z,17.40
2022-09-24T11:46:36.656Z,17.40
2022-09-24T11:49:48.965Z,17.20
2022-09-24T11:52:43.708Z,17.20
2022-09-24T11:55:38.133Z,17.10
2022-09-24T11:58:30.408Z,16.90
2022-09-24T12:01:22.269Z,16.90
2022-09-24T12:04:17.522Z,16.90
2022-09-24T12:07:13.594Z,16.80
2022-09-24T12:10:06.328Z,16.80
2022-09-24T12:13:04.344Z,16.90
2022-09-24T12:15:57.517Z,17.10
2022-09-24T12:18:51.487Z,17.20
2022-09-24T12:21:43.349Z,17.10
2022-09-24T12:24:36.249Z,17.00
2022-09-24T12:27:31.603Z,17.10
2022-09-24T12:30:47.790Z,17.20
2022-09-24T12:33:42.041Z,17.60
2022-09-24T12:36:41.980Z,17.80
2022-09-24T12:39:36.677Z,17.70
2022-09-24T12:42:35.081Z,17.60
2022-09-24T12:45:26.518Z,17.50
2022-09-24T12:48:17.405Z,17.40
2022-09-24T12:51:10.542Z,17.30
2022-09-24T12:54:01.447Z,17.20
2022-09-24T12:56:50.201Z,17.10
2022-09-24T12:59:50.163Z,17.00
2022-09-24T13:02:48.234Z,16.90
2022-09-24T13:05:49.458Z,16.90
2022-09-24T13:08:39.504Z,16.80
2022-09-24T13:11:31.491Z,16.70
2022-09-24T13:14:23.301Z,16.70
2022-09-24T13:17:16.945Z,16.60
2022-09-24T13:20:08.782Z,16.60
2022-09-24T13:22:58.726Z,16.70
2022-09-24T13:25:56.701Z,16.50
2022-09-24T13:28:58.367Z,16.40
2022-09-24T13:31:52.319Z,16.30
2022-09-24T13:34:41.502Z,16.20
2022-09-24T13:37:36.629Z,16.30
2022-09-24T13:40:29.809Z,16.40
2022-09-24T13:43:29.582Z,16.50
2022-09-24T13:46:20.032Z,16.40
2022-09-24T13:49:16.339Z,16.60
2022-09-24T13:52:16.562Z,16.60
2022-09-24T13:55:13.600Z,16.50
2022-09-24T13:58:02.455Z,16.40
2022-09-24T14:00:52.127Z,16.30
2022-09-24T14:03:41.851Z,16.30
2022-09-24T14:06:37.154Z,16.30
2022-09-24T14:09:33.674Z,16.30
2022-09-24T14:12:23.758Z,16.30
2022-09-24T14:15:17.670Z,16.20
2022-09-24T14:18:12.682Z,16.10
2022-09-24T14:21:07.455Z,16.10
2022-09-24T14:23:59.663Z,16.10
2022-09-24T14:26:54.011Z,16.00
2022-09-24T14:29:51.840Z,16.00
2022-09-24T14:32:43.157Z,16.00
2022-09-24T14:35:34.131Z,16.00
2022-09-24T14:38:28.739Z,16.00
2022-09-24T14:41:20.767Z,15.90
2022-09-24T14:44:17.334Z,15.80
2022-09-24T14:47:23.374Z,15.90
2022-09-24T14:50:29.476Z,15.90
2022-09-24T14:53:23.815Z,15.80
2022-09-24T14:56:21.562Z,15.70
2022-09-24T14:59:16.659Z,15.60
2022-09-24T15:02:17.583Z,15.70
2022-09-24T15:05:09.529Z,15.60
2022-09-24T15:08:24.439Z,15.60
2022-09-24T15:11:19.242Z,15.60
2022-09-24T15:14:20.249Z,15.50
2022-09-24T15:17:23.478Z,15.50
2022-09-24T15:20:14.033Z,15.60
2022-09-24T15:23:02.807Z,15.60
2022-09-24T15:25:51.614Z,15.70
2022-09-24T15:28:40.269Z,15.60
2022-09-24T15:31:36.888Z,15.50
2022-09-24T15:34:28.454Z,15.50
2022-09-24T15:37:36.169Z,15.40
2022-09-24T15:40:30.864Z,15.30
2022-09-24T15:43:22.783Z,15.10
2022-09-24T15:46:05.885Z,15.00
2022-09-24T15:48:54.676Z,15.00
2022-09-24T15:51:44.819Z,14.90
2022-09-24T15:54:34.636Z,14.90
2022-09-24T15:57:23.799Z,14.80
2022-09-24T16:00:18.448Z,14.80
2022-09-24T16:03:07.593Z,14.70
2022-09-24T16:05:57.670Z,14.60
2022-09-24T16:08:47.745Z,14.50
2022-09-24T16:11:36.651Z,14.50
2022-09-24T16:14:25.274Z,14.40
2022-09-24T16:17:14.291Z,14.30
2022-09-24T16:20:03.568Z,14.10
2022-09-24T16:22:52.293Z,13.80
2022-09-24T16:25:42.862Z,13.70
2022-09-24T16:28:31.758Z,13.50
2022-09-24T16:31:20.645Z,13.40
2022-09-24T16:34:09.321Z,13.30
2022-09-24T16:36:58.036Z,13.20
2022-09-24T16:39:46.694Z,13.20
2022-09-24T16:42:37.028Z,13.10
2022-09-24T16:45:25.675Z,13.00
2022-09-24T16:48:14.777Z,12.80
2022-09-24T16:51:05.039Z,12.80
2022-09-24T16:53:56.563Z,12.70
2022-09-24T16:56:45.266Z,12.60
2022-09-24T16:59:35.473Z,12.60
2022-09-24T17:02:24.236Z,12.50
2022-09-24T17:05:12.948Z,12.50
2022-09-24T17:08:01.735Z,12.60
2022-09-24T17:10:51.639Z,12.50
2022-09-24T17:13:41.504Z,12.50
2022-09-24T17:16:32.045Z,12.50
2022-09-24T17:19:20.707Z,12.50
2022-09-24T17:22:09.432Z,12.50
2022-09-24T17:24:58.126Z,12.40
2022-09-24T17:27:46.921Z,12.40
2022-09-24T17:30:35.562Z,12.40
2022-09-24T17:33:43.001Z,12.30
2022-09-24T17:36:34.038Z,12.40
2022-09-24T17:39:22.743Z,12.30
2022-09-24T17:42:11.413Z,12.30
2022-09-24T17:45:00.062Z,12.30
2022-09-24T17:47:57.860Z,12.30
2022-09-24T17:50:54.767Z,12.30
2022-09-24T17:53:44.154Z,12.30
2022-09-24T17:56:34.359Z,12.20
2022-09-24T17:59:26.619Z,12.20
2022-09-24T18:02:15.755Z,12.20
2022-09-24T18:05:04.430Z,12.20
2022-09-24T18:07:54.489Z,12.20
2022-09-24T18:10:43.604Z,12.20
2022-09-24T18:13:35.108Z,12.20
2022-09-24T18:16:25.759Z,12.20
2022-09-24T18:19:17.189Z,12.20
2022-09-24T18:22:06.588Z,12.10
2022-09-24T18:25:00.830Z,12.10
2022-09-24T18:27:49.591Z,12.10
2022-09-24T18:30:38.492Z,12.10
2022-09-24T18:33:27.197Z,12.10
2022-09-24T18:36:17.755Z,12.10
2022-09-24T18:39:08.534Z,12.10
2022-09-24T18:41:59.092Z,12.10
2022-09-24T18:44:47.782Z,12.10
2022-09-24T18:47:38.974Z,12.10
2022-09-24T18:50:28.324Z,12.00
2022-09-24T18:53:16.972Z,12.00
2022-09-24T18:56:07.392Z,12.00
2022-09-24T18:58:58.613Z,11.90
2022-09-24T19:01:48.263Z,11.80
2022-09-24T19:04:37.057Z,11.80
2022-09-24T19:07:25.713Z,11.70
2022-09-24T19:10:14.358Z,11.80
2022-09-24T19:13:03.040Z,11.80
2022-09-24T19:15:53.141Z,11.80
2022-09-24T19:18:48.065Z,11.80
2022-09-24T19:21:36.733Z,11.80
2022-09-24T19:24:25.490Z,11.80
2022-09-24T19:27:14.126Z,11.80
2022-09-24T19:30:02.817Z,11.80
2022-09-24T19:32:52.899Z,11.80
2022-09-24T19:35:41.550Z,11.80
2022-09-24T19:38:32.317Z,11.80
2022-09-24T19:41:25.116Z,11.80
2022-09-24T19:44:16.662Z,11.80
2022-09-24T19:47:06.521Z,11.80
2022-09-24T19:49:56.577Z,11.80
2022-09-24T19:52:45.573Z,11.80
2022-09-24T19:55:36.494Z,11.80
2022-09-24T19:58:25.634Z,11.80
2022-09-24T20:01:17.387Z,11.70
2022-09-24T20:04:08.401Z,11.70
2022-09-24T20:07:02.312Z,11.70
2022-09-24T20:09:53.819Z,11.70
2022-09-24T20:12:46.670Z,11.80
2022-09-24T20:15:35.341Z,11.70
2022-09-24T20:18:24.065Z,11.70
2022-09-24T20:21:13.606Z,11.70
2022-09-24T20:24:04.657Z,11.70
2022-09-24T20:27:10.811Z,11.70
2022-09-24T20:29:59.466Z,11.70
2022-09-24T20:32:48.158Z,11.60
2022-09-24T20:35:37.012Z,11.60
2022-09-24T20:38:25.759Z,11.70
2022-09-24T20:41:18.013Z,11.70
2022-09-24T20:44:06.781Z,11.60
2022-09-24T20:46:58.105Z,11.60
2022-09-24T20:49:46.779Z,11.50
2022-09-24T20:52:35.451Z,11.50
2022-09-24T20:55:25.045Z,11.50
2022-09-24T20:58:17.047Z,11.50
2022-09-24T21:01:06.213Z,11.40
2022-09-24T21:03:55.172Z,11.40
2022-09-24T21:06:43.958Z,11.40
2022-09-24T21:09:32.719Z,11.40
2022-09-24T21:12:23.038Z,11.40
2022-09-24T21:15:13.932Z,11.40
2022-09-24T21:18:21.639Z,11.40
2022-09-24T21:21:13.310Z,11.40
2022-09-24T21:24:02.514Z,11.40
2022-09-24T21:26:51.254Z,11.40
2022-09-24T21:29:40.232Z,11.40
2022-09-24T21:32:31.617Z,11.40
2022-09-24T21:35:20.256Z,11.40
2022-09-24T21:38:09.492Z,11.40
2022-09-24T21:40:59.048Z,11.40
2022-09-24T21:43:47.890Z,11.40
2022-09-24T21:46:37.032Z,11.30
2022-09-24T21:49:27.425Z,11.30
2022-09-24T21:52:16.227Z,11.30
2022-09-24T21:55:05.382Z,11.30
2022-09-24T21:57:55.973Z,11.30
2022-09-24T22:00:44.789Z,11.30
2022-09-24T22:03:33.478Z,11.30
2022-09-24T22:06:25.114Z,11.30
2022-09-24T22:09:13.826Z,11.30
2022-09-24T22:12:04.666Z,11.30
2022-09-24T22:14:53.599Z,11.30
2022-09-24T22:17:42.544Z,11.40
2022-09-24T22:20:31.331Z,11.40
2022-09-24T22:23:22.185Z,11.40
2022-09-24T22:26:13.598Z,11.30
2022-09-24T22:29:03.217Z,11.40
2022-09-24T22:31:51.929Z,11.50
2022-09-24T22:34:58.211Z,11.40
2022-09-24T22:37:48.125Z,11.40
2022-09-24T22:40:38.376Z,11.40
2022-09-24T22:43:27.095Z,11.40
2022-09-24T22:46:16.507Z,11.40
2022-09-24T22:49:06.887Z,11.40
2022-09-24T22:51:55.542Z,11.40
2022-09-24T22:54:44.210Z,11.30
2022-09-24T22:57:36.050Z,11.40
2022-09-24T23:00:24.754Z,11.40
2022-09-24T23:03:14.146Z,11.40
2022-09-24T23:06:02.848Z,11.40
2022-09-24T23:08:53.141Z,11.40
2022-09-24T23:11:41.877Z,11.40
2022-09-24T23:14:31.973Z,11.40
2022-09-24T23:17:20.765Z,11.40
2022-09-24T23:20:10.555Z,11.30
2022-09-24T23:22:59.269Z,11.40
2022-09-24T23:25:47.894Z,11.30
2022-09-24T23:28:37.262Z,11.30
2022-09-24T23:31:29.971Z,11.30
2022-09-24T23:34:20.390Z,11.20
2022-09-24T23:37:09.051Z,11.20
2022-09-24T23:39:57.701Z,11.20
2022-09-24T23:42:46.335Z,11.30
2022-09-24T23:45:35.530Z,11.20
2022-09-24T23:48:26.250Z,11.30
2022-09-24T23:51:14.870Z,11.30
2022-09-24T23:54:03.601Z,11.30
2022-09-24T23:56:52.246Z,11.30
2022-09-24T23:59:40.902Z,11.30
